createdAt,value
2019-05-03T00:02:29.785Z,23.85
2019-05-03T00:05:23.296Z,23.27
2019-05-03T00:07:59.664Z,24.98
2019-05-03T00:10:32.819Z,22.74
2019-05-03T00:13:06.019Z,24.80
2019-05-03T00:15:38.592Z,25.45
2019-05-03T00:18:12.302Z,24.70
2019-05-03T00:20:44.841Z,25.40
2019-05-03T00:23:17.299Z,24.87
2019-05-03T00:25:50.054Z,25.25
2019-05-03T00:28:22.740Z,24.92
2019-05-03T00:30:55.309Z,25.97
2019-05-03T00:33:31.817Z,27.52
2019-05-03T00:36:12.316Z,25.10
2019-05-03T00:38:44.748Z,22.95
2019-05-03T00:41:17.326Z,25.02
2019-05-03T00:43:51.734Z,22.07
2019-05-03T00:46:23.802Z,25.95
2019-05-03T00:49:00.800Z,23.27
2019-05-03T00:51:33.279Z,24.13
2019-05-03T00:54:05.805Z,27.37
2019-05-03T00:56:38.396Z,22.77
2019-05-03T00:59:12.656Z,23.23
2019-05-03T01:01:45.319Z,24.60
2019-05-03T01:04:17.858Z,24.87
2019-05-03T01:06:50.304Z,23.92
2019-05-03T01:09:23.985Z,24.50
2019-05-03T01:12:01.950Z,24.63
2019-05-03T01:14:36.301Z,23.27
2019-05-03T01:17:08.414Z,22.02
2019-05-03T01:19:40.321Z,22.27
2019-05-03T01:22:12.710Z,23.47
2019-05-03T01:24:45.285Z,24.20
2019-05-03T01:27:17.641Z,25.55
2019-05-03T01:29:51.943Z,24.95
2019-05-03T01:32:25.204Z,22.70
2019-05-03T01:35:03.188Z,23.68
2019-05-03T01:37:35.888Z,23.87
2019-05-03T01:40:10.297Z,25.08
2019-05-03T01:42:46.330Z,23.83
2019-05-03T01:45:18.846Z,23.80
2019-05-03T01:47:59.019Z,22.65
2019-05-03T01:50:39.383Z,23.95
2019-05-03T01:53:13.319Z,23.45
2019-05-03T01:55:53.345Z,23.50
2019-05-03T01:58:27.655Z,24.20
2019-05-03T02:01:16.651Z,24.27
2019-05-03T02:04:06.817Z,23.75
2019-05-03T02:06:39.301Z,23.38
2019-05-03T02:09:12.201Z,24.98
2019-05-03T02:11:44.720Z,24.47
2019-05-03T02:14:17.312Z,25.05
2019-05-03T02:19:22.356Z,23.02
2019-05-03T02:21:54.306Z,25.27
2019-05-03T02:24:28.089Z,24.08
2019-05-03T02:27:02.167Z,24.55
2019-05-03T02:29:34.693Z,23.15
2019-05-03T02:32:07.301Z,26.00
2019-05-03T02:34:39.598Z,24.65
2019-05-03T02:37:13.866Z,24.25
2019-05-03T02:39:47.048Z,24.72
2019-05-03T02:42:19.720Z,24.52
2019-05-03T02:44:55.320Z,23.67
2019-05-03T02:50:05.978Z,24.02
2019-05-03T02:55:16.028Z,24.35
2019-05-03T02:57:47.469Z,24.95
2019-05-03T03:02:58.284Z,23.26
2019-05-03T03:05:31.518Z,24.12
2019-05-03T03:08:06.329Z,23.43
2019-05-03T03:10:45.338Z,23.07
2019-05-03T03:13:19.523Z,22.50
2019-05-03T03:15:55.455Z,21.68
2019-05-03T03:18:36.401Z,21.65
2019-05-03T03:21:20.869Z,22.65
2019-05-03T03:24:13.051Z,22.77
2019-05-03T03:26:47.296Z,22.58
2019-05-03T03:29:27.304Z,22.65
2019-05-03T03:32:20.047Z,22.60
2019-05-03T03:35:21.239Z,22.98
2019-05-03T03:40:25.532Z,21.55
2019-05-03T03:43:05.224Z,21.90
2019-05-03T03:45:39.546Z,24.15
2019-05-03T03:48:15.862Z,23.35
2019-05-03T03:50:52.296Z,24.85
2019-05-03T03:53:27.537Z,24.02
2019-05-03T03:56:05.554Z,25.23
2019-05-03T03:58:38.459Z,26.05
2019-05-03T04:01:15.526Z,27.00
2019-05-03T04:03:47.364Z,25.17
2019-05-03T04:06:21.556Z,24.85
2019-05-03T04:08:56.114Z,27.30
2019-05-03T04:11:29.037Z,24.18
2019-05-03T04:14:01.572Z,26.33
2019-05-03T04:16:58.181Z,24.67
2019-05-03T04:19:36.606Z,26.17
2019-05-03T04:22:09.415Z,25.70
2019-05-03T04:24:42.050Z,26.23
2019-05-03T04:27:22.742Z,27.35
2019-05-03T04:29:55.582Z,27.17
2019-05-03T04:32:29.249Z,28.86
2019-05-03T04:35:01.790Z,29.07
2019-05-03T04:37:35.895Z,27.45
2019-05-03T04:40:10.456Z,30.97
2019-05-03T04:42:46.806Z,29.82
2019-05-03T04:45:17.354Z,28.92
2019-05-03T04:47:49.720Z,28.67
2019-05-03T04:50:25.264Z,31.15
2019-05-03T04:52:56.927Z,29.55
2019-05-03T04:55:29.703Z,28.47
2019-05-03T04:58:04.647Z,28.75
2019-05-03T05:03:08.974Z,27.95
2019-05-03T05:05:41.738Z,27.17
2019-05-03T05:08:16.302Z,28.27
2019-05-03T05:10:48.398Z,26.07
2019-05-03T05:13:21.280Z,25.82
2019-05-03T05:15:55.067Z,27.20
2019-05-03T05:18:36.759Z,25.14
2019-05-03T05:21:11.306Z,24.47
2019-05-03T05:23:47.598Z,25.40
2019-05-03T05:26:24.877Z,25.70
2019-05-03T05:29:05.393Z,24.45
2019-05-03T05:31:37.894Z,24.72
2019-05-03T05:34:10.473Z,25.15
2019-05-03T05:36:45.075Z,26.20
2019-05-03T05:39:21.361Z,24.85
2019-05-03T05:41:55.458Z,23.87
2019-05-03T05:44:29.319Z,22.26
2019-05-03T05:47:04.691Z,23.00
2019-05-03T05:49:55.011Z,22.40
2019-05-03T05:52:29.354Z,23.10
2019-05-03T05:55:04.632Z,23.10
2019-05-03T05:57:45.014Z,23.45
2019-05-03T06:00:25.637Z,21.15
2019-05-03T06:02:59.501Z,20.26
2019-05-03T06:05:32.047Z,19.30
2019-05-03T06:08:05.386Z,19.20
2019-05-03T06:10:42.354Z,21.60
2019-05-03T06:13:29.336Z,21.23
2019-05-03T06:16:10.980Z,19.10
2019-05-03T06:18:54.280Z,18.27
2019-05-03T06:21:26.293Z,17.98
2019-05-03T06:24:06.429Z,18.45
2019-05-03T06:26:40.404Z,19.83
2019-05-03T06:29:14.830Z,20.90
2019-05-03T06:31:48.849Z,23.35
2019-05-03T06:34:21.516Z,23.10
2019-05-03T06:36:55.566Z,22.07
2019-05-03T06:39:30.307Z,23.73
2019-05-03T06:42:05.071Z,22.42
2019-05-03T06:44:37.348Z,23.85
2019-05-03T06:47:10.592Z,24.75
2019-05-03T06:49:44.893Z,24.07
2019-05-03T06:52:19.629Z,23.65
2019-05-03T06:54:51.631Z,21.42
2019-05-03T06:57:25.409Z,16.27
2019-05-03T07:00:10.287Z,16.85
2019-05-03T07:02:44.762Z,16.43
2019-05-03T07:05:22.067Z,17.87
2019-05-03T07:08:15.146Z,14.95
2019-05-03T07:10:49.508Z,18.17
2019-05-03T07:13:22.303Z,18.05
2019-05-03T07:15:56.001Z,18.12
2019-05-03T07:21:16.743Z,13.15
2019-05-03T07:23:49.278Z,11.93
2019-05-03T07:26:21.764Z,11.18
2019-05-03T07:28:54.638Z,9.83
2019-05-03T07:31:27.302Z,10.35
2019-05-03T07:34:00.406Z,9.88
2019-05-03T07:36:32.854Z,9.68
2019-05-03T07:39:07.636Z,10.73
2019-05-03T07:41:40.269Z,9.88
2019-05-03T07:44:12.685Z,9.48
2019-05-03T07:46:45.364Z,8.88
2019-05-03T07:49:17.865Z,8.40
2019-05-03T07:51:50.756Z,7.60
2019-05-03T07:54:24.838Z,7.67
2019-05-03T07:56:59.225Z,7.70
2019-05-03T07:59:31.802Z,8.03
2019-05-03T08:02:05.566Z,7.70
2019-05-03T08:07:20.664Z,9.20
2019-05-03T08:09:46.050Z,8.87
2019-05-03T08:12:19.299Z,9.30
2019-05-03T08:14:51.841Z,9.55
2019-05-03T08:17:25.663Z,8.53
2019-05-03T08:19:59.671Z,9.55
2019-05-03T08:22:34.406Z,9.73
2019-05-03T08:25:09.313Z,10.55
2019-05-03T08:27:41.880Z,9.88
2019-05-03T08:30:16.710Z,9.05
2019-05-03T08:32:54.925Z,9.40
2019-05-03T08:35:35.434Z,10.03
2019-05-03T08:40:41.514Z,9.18
2019-05-03T08:45:47.844Z,8.70
2019-05-03T08:48:20.443Z,8.95
2019-05-03T08:50:55.288Z,8.80
2019-05-03T08:53:27.286Z,8.70
2019-05-03T08:56:01.395Z,8.16
2019-05-03T08:58:35.128Z,8.70
2019-05-03T09:01:09.470Z,9.00
2019-05-03T09:03:42.294Z,8.33
2019-05-03T09:06:15.519Z,8.10
2019-05-03T09:08:48.576Z,7.40
2019-05-03T09:11:31.836Z,6.55
2019-05-03T09:13:57.334Z,7.05
2019-05-03T09:16:31.572Z,6.28
2019-05-03T09:19:05.547Z,8.65
2019-05-03T09:21:38.627Z,7.97
2019-05-03T09:24:36.378Z,6.28
2019-05-03T09:27:09.342Z,6.92
2019-05-03T09:30:35.713Z,6.55
2019-05-03T09:37:07.867Z,6.62
2019-05-03T09:39:40.601Z,6.76
2019-05-03T09:42:14.908Z,6.45
2019-05-03T09:44:47.859Z,5.85
2019-05-03T12:10:52.303Z,3.98
2019-05-03T12:13:21.021Z,4.15
2019-05-03T12:15:55.267Z,4.80
2019-05-03T12:18:28.456Z,4.37
2019-05-03T12:21:07.218Z,4.62
2019-05-03T12:23:39.992Z,4.87
2019-05-03T12:26:14.716Z,4.47
2019-05-03T12:28:47.479Z,4.22
2019-05-03T12:31:31.757Z,3.58
2019-05-03T12:33:55.151Z,3.92
2019-05-03T12:36:27.263Z,4.83
2019-05-03T12:39:01.377Z,5.03
2019-05-03T12:41:35.414Z,4.45
2019-05-03T12:44:08.113Z,3.94
2019-05-03T12:46:45.035Z,3.85
2019-05-03T12:49:17.585Z,4.72
2019-05-03T12:51:50.333Z,4.20
2019-05-03T12:54:25.551Z,3.85
2019-05-03T12:56:58.273Z,3.90
2019-05-03T12:59:30.383Z,3.27
2019-05-03T13:02:07.100Z,3.57
2019-05-03T13:04:44.688Z,4.50
2019-05-03T13:09:51.776Z,3.50
2019-05-03T13:12:28.749Z,3.22
2019-05-03T13:15:51.766Z,3.05
2019-05-03T13:18:25.258Z,3.33
2019-05-03T13:20:58.037Z,3.45
2019-05-03T13:23:30.684Z,3.50
2019-05-03T13:26:06.737Z,3.52
2019-05-03T13:28:39.392Z,3.30
2019-05-03T13:33:58.884Z,3.10
2019-05-03T13:36:31.285Z,2.98
2019-05-03T13:39:13.965Z,3.10
2019-05-03T13:41:45.504Z,3.00
2019-05-03T13:44:18.418Z,3.08
2019-05-03T13:46:51.097Z,2.70
2019-05-03T13:49:23.410Z,2.95
2019-05-03T13:51:55.771Z,2.67
2019-05-03T13:54:28.337Z,2.10
2019-05-03T13:57:00.649Z,2.87
2019-05-03T13:59:35.021Z,3.10
2019-05-03T14:02:15.181Z,2.52
2019-05-03T14:04:50.197Z,2.50
2019-05-03T14:09:47.462Z,2.67
2019-05-03T14:12:19.871Z,2.47
2019-05-03T14:17:29.464Z,2.10
2019-05-03T14:20:06.331Z,2.50
2019-05-03T14:22:40.383Z,2.90
2019-05-03T14:25:12.791Z,2.72
2019-05-03T14:27:45.691Z,2.17
2019-05-03T14:30:20.285Z,2.50
2019-05-03T14:32:52.783Z,2.47
2019-05-03T14:35:25.289Z,2.40
2019-05-03T14:37:57.292Z,2.50
2019-05-03T14:40:29.263Z,2.33
2019-05-03T14:43:01.851Z,2.20
2019-05-03T14:45:35.303Z,1.82
2019-05-03T14:48:08.522Z,1.50
2019-05-03T14:50:41.354Z,1.55
2019-05-03T14:53:14.756Z,1.40
2019-05-03T14:55:49.316Z,1.22
2019-05-03T14:58:32.373Z,0.97
2019-05-03T15:01:12.395Z,1.40
2019-05-03T15:03:45.218Z,1.33
2019-05-03T15:06:17.793Z,1.70
2019-05-03T15:08:50.498Z,1.50
2019-05-03T15:11:23.018Z,2.30
2019-05-03T15:13:57.297Z,1.72
2019-05-03T15:19:02.394Z,1.90
2019-05-03T15:21:35.809Z,2.00
2019-05-03T15:26:40.288Z,1.60
2019-05-03T15:31:47.282Z,1.70
2019-05-03T15:34:20.810Z,1.50
2019-05-03T15:36:54.707Z,1.35
2019-05-03T15:39:27.782Z,1.77
2019-05-03T15:42:05.297Z,1.47
2019-05-03T15:44:54.391Z,1.40
2019-05-03T15:47:44.615Z,1.70
2019-05-03T15:52:50.259Z,2.40
2019-05-03T15:55:26.047Z,2.33
2019-05-03T15:57:58.681Z,3.05
2019-05-03T16:00:31.576Z,2.58
2019-05-03T16:03:08.878Z,2.77
2019-05-03T16:05:38.395Z,3.08
2019-05-03T16:08:10.878Z,3.26
2019-05-03T16:10:45.528Z,3.08
2019-05-03T16:13:22.453Z,3.00
2019-05-03T16:18:28.599Z,3.12
2019-05-03T16:21:01.128Z,2.50
2019-05-03T16:23:35.346Z,2.92
2019-05-03T16:26:14.350Z,2.67
2019-05-03T16:28:48.291Z,2.87
2019-05-03T16:31:22.249Z,3.17
2019-05-03T16:33:55.233Z,2.77
2019-05-03T16:36:27.835Z,3.00
2019-05-03T16:39:00.586Z,2.37
2019-05-03T16:41:35.390Z,2.25
2019-05-03T16:44:07.784Z,2.67
2019-05-03T16:46:40.395Z,2.90
2019-05-03T16:49:12.831Z,3.00
2019-05-03T16:51:46.404Z,2.80
2019-05-03T16:54:18.855Z,3.67
2019-05-03T16:56:51.338Z,3.12
2019-05-03T16:59:24.760Z,3.10
2019-05-03T17:01:57.421Z,3.12
2019-05-03T17:04:34.623Z,3.60
2019-05-03T17:07:15.131Z,3.62
2019-05-03T17:09:49.300Z,3.87
2019-05-03T17:12:25.746Z,4.20
2019-05-03T17:14:58.622Z,3.67
2019-05-03T17:17:31.311Z,3.10
2019-05-03T17:20:05.210Z,2.98
2019-05-03T17:22:37.775Z,3.22
2019-05-03T17:25:10.362Z,2.95
2019-05-03T17:27:44.818Z,3.52
2019-05-03T17:30:17.485Z,3.00
2019-05-03T17:32:49.901Z,2.80
2019-05-03T17:35:22.311Z,2.83
2019-05-03T17:37:55.048Z,2.57
2019-05-03T17:40:27.621Z,2.80
2019-05-03T17:43:05.034Z,4.03
2019-05-03T17:45:42.286Z,3.25
2019-05-03T17:48:14.987Z,3.65
2019-05-03T17:50:47.578Z,3.58
2019-05-03T17:53:27.667Z,3.25
2019-05-03T17:56:01.967Z,3.45
2019-05-03T17:58:52.838Z,3.50
2019-05-03T18:01:44.559Z,2.87
2019-05-03T18:04:21.363Z,5.42
2019-05-03T18:06:55.657Z,4.15
2019-05-03T18:09:30.314Z,2.90
2019-05-03T18:12:04.648Z,2.87
2019-05-03T18:14:37.783Z,3.14
2019-05-03T18:17:10.322Z,3.10
2019-05-03T18:19:44.696Z,2.85
2019-05-03T18:22:16.792Z,2.85
2019-05-03T18:24:49.301Z,2.60
2019-05-03T18:27:21.750Z,2.87
2019-05-03T18:29:55.434Z,3.10
2019-05-03T18:32:27.865Z,2.55
2019-05-03T18:35:00.367Z,2.30
2019-05-03T18:37:34.837Z,2.85
2019-05-03T18:40:10.341Z,2.60
2019-05-03T18:42:50.370Z,2.90
2019-05-03T18:45:42.295Z,2.90
2019-05-03T18:48:15.298Z,2.60
2019-05-03T18:50:47.740Z,2.52
2019-05-03T18:53:20.278Z,2.40
2019-05-03T18:55:52.833Z,2.85
2019-05-03T18:58:27.071Z,2.55
2019-05-03T19:00:59.694Z,3.17
2019-05-03T19:03:32.295Z,2.60
2019-05-03T19:06:14.302Z,2.55
2019-05-03T19:09:05.250Z,3.40
2019-05-03T19:11:47.315Z,3.30
2019-05-03T19:14:21.364Z,3.42
2019-05-03T19:17:01.464Z,2.75
2019-05-03T19:19:39.308Z,2.45
2019-05-03T19:22:12.297Z,3.17
2019-05-03T19:24:44.692Z,2.70
2019-05-03T19:27:17.307Z,2.58
2019-05-03T19:29:49.597Z,2.22
2019-05-03T19:32:22.319Z,3.00
2019-05-03T19:37:28.168Z,4.62
2019-05-03T19:40:00.586Z,7.00
2019-05-03T19:42:35.248Z,6.00
2019-05-03T19:45:09.311Z,5.00
2019-05-03T19:50:15.726Z,4.90
2019-05-03T19:53:06.530Z,4.28
2019-05-03T19:55:38.923Z,2.98
2019-05-03T19:58:11.417Z,3.42
2019-05-03T20:00:57.424Z,3.15
2019-05-03T20:03:36.023Z,3.00
2019-05-03T20:06:19.570Z,3.27
2019-05-03T20:08:56.529Z,3.45
2019-05-03T20:11:29.103Z,3.40
2019-05-03T20:14:01.708Z,3.27
2019-05-03T20:16:34.749Z,3.37
2019-05-03T20:19:17.671Z,3.62
2019-05-03T20:21:42.675Z,3.40
2019-05-03T20:24:15.290Z,3.70
2019-05-03T20:26:48.051Z,3.42
2019-05-03T20:29:20.451Z,3.10
2019-05-03T20:31:52.823Z,3.37
2019-05-03T20:34:25.314Z,2.85
2019-05-03T20:36:57.613Z,3.08
2019-05-03T20:39:30.305Z,3.10
2019-05-03T20:42:04.441Z,3.35
2019-05-03T20:44:54.523Z,3.08
2019-05-03T20:47:28.556Z,3.70
2019-05-03T20:50:17.332Z,4.25
2019-05-03T20:52:49.759Z,4.22
2019-05-03T20:55:22.316Z,3.90
2019-05-03T20:57:56.507Z,3.52
2019-05-03T21:00:29.038Z,3.40
2019-05-03T21:03:01.452Z,3.60
2019-05-03T21:05:36.818Z,3.85
2019-05-03T21:08:08.422Z,4.20
2019-05-03T21:10:40.827Z,4.10
2019-05-03T21:13:14.622Z,4.26
2019-05-03T21:16:14.643Z,4.47
2019-05-03T21:18:56.311Z,4.95
2019-05-03T21:21:39.416Z,5.25
2019-05-03T21:24:19.315Z,5.12
2019-05-03T21:26:51.759Z,5.08
2019-05-03T21:29:24.311Z,4.62
2019-05-03T21:31:56.592Z,4.85
2019-05-03T21:34:29.075Z,4.67
2019-05-03T21:37:01.496Z,5.33
2019-05-03T21:39:34.855Z,5.58
2019-05-03T21:42:08.521Z,5.42
2019-05-03T21:44:40.882Z,5.85
2019-05-03T21:47:22.144Z,5.68
2019-05-03T21:49:56.346Z,6.00
2019-05-03T21:53:22.295Z,6.22
2019-05-03T21:55:56.647Z,7.10
2019-05-03T21:58:29.043Z,6.28
2019-05-03T22:01:05.060Z,6.92
2019-05-03T22:03:42.038Z,7.06
2019-05-03T22:06:15.410Z,6.22
2019-05-03T22:08:49.294Z,7.57
2019-05-03T22:11:21.272Z,6.92
2019-05-03T22:13:57.026Z,7.45
2019-05-03T22:16:45.015Z,7.60
2019-05-03T22:19:19.473Z,8.08
2019-05-03T22:22:05.604Z,8.00
2019-05-03T22:24:44.684Z,7.40
2019-05-03T22:27:17.317Z,7.53
2019-05-03T22:29:49.644Z,7.07
2019-05-03T22:32:22.304Z,8.48
2019-05-03T22:34:54.596Z,7.42
2019-05-03T22:37:27.055Z,7.28
2019-05-03T22:39:59.354Z,7.20
2019-05-03T22:42:34.439Z,6.83
2019-05-03T22:45:08.607Z,7.87
2019-05-03T22:47:41.314Z,7.97
2019-05-03T22:50:14.885Z,7.32
2019-05-03T22:52:47.698Z,7.85
2019-05-03T22:55:20.294Z,7.67
2019-05-03T22:57:54.587Z,7.50
2019-05-03T23:00:27.310Z,7.22
2019-05-03T23:03:02.806Z,8.40
2019-05-03T23:05:37.262Z,7.28
2019-05-03T23:08:11.169Z,7.20
2019-05-03T23:10:45.134Z,6.98
2019-05-03T23:13:18.298Z,7.20
2019-05-03T23:15:50.669Z,7.70
2019-05-03T23:18:24.650Z,6.95
2019-05-03T23:21:05.704Z,7.53
2019-05-03T23:23:54.657Z,6.98
2019-05-03T23:26:26.806Z,7.15
2019-05-03T23:28:59.321Z,7.17
2019-05-03T23:31:31.729Z,7.00
2019-05-03T23:34:04.941Z,7.35
2019-05-03T23:36:39.323Z,6.47
2019-05-03T23:39:11.842Z,7.45
2019-05-03T23:41:44.293Z,6.58
2019-05-03T23:44:18.302Z,6.78
2019-05-03T23:46:55.296Z,7.45
2019-05-03T23:49:27.662Z,7.83
2019-05-03T23:52:17.469Z,7.67
2019-05-03T23:54:49.804Z,8.00
2019-05-03T23:57:25.177Z,7.83
2019-05-03T23:59:58.295Z,7.67
